Hauptseite
METAR-TAF:

METAR-TAF

Flughäfen :

Flughafen Bonriki

Tarawa, Kiribati

Breite: 01-21N, Länge: 172-55E, Höhe: 2 m

Beobachtung

Neuester Wetterbericht von vor 22 Minuten, um 08:00 UTC
Wind 14 kt aus Ost
Temperatur 28°C
Luftfeuchtigkeit 84%
Luftdruck 1009 hPa
Sichtweite 10 km oder mehr
Leicht bewölkt in der Höhe von 1600 ft, Kumulonimbus.
Aufgelockert bewölkt in der Höhe von 1700 ft, Towering cumulus.
Durchbrochene Bewölkung in der Höhe von 4500 ft

METAR: NGTA 190800Z 09014KT 9999 FEW016CB SCT017TCU BKN045 28/25 Q1009

Zeit: 22:22 (08:22 UTC)

Prognose

Neuester Wetterbericht von vor 3 Stunden und 8 Minuten, um 05:14 UTC
Gültige Prognose vom 19 um 06 UTC bis 20 um 06 UTC
Wind 5 kt aus Ost
Sichtweite 10 km oder mehr
Leicht bewölkt in der Höhe von 1800 ft
Aufgelockert bewölkt in der Höhe von 4500 ft

TAF: NGTA 190514Z 1906/2006 08005KT 9999 FEW018 SCT045

Wetterbeobachtungen und Prognosen von mehr als 4000 Flughäfen (METAR und TAF Bericht).

Die verfügbaren Stationen werden durch gelbe und rote Markierungen auf der Karte dargestellt.

Führen Sie die Maus auf sie, um den Namen der Station zu sehen.

Darauf klicken, um die Beobachtung von Wetterbeobachtungen und Prognosen zu sehen.

Um die Karte zu ändern : klicken Sie auf den grünen Tasten mit einem schwarzen Kreuz Zum Vergrößern, auf den grünen Button mit einem Gedankenstrich zu verkleinern, oder auf die grünen Pfeile für benachbarte Karten.


METAR-TAF: